sensor_id;sensor_type;location;lat;lon;timestamp;pressure;altitude;pressure_sealevel;temperature;humidity
49030;BME280;43337;52.070;4.508;2024-01-07T00:01:50;102070.81;;;1.41;100.00
49030;BME280;43337;52.070;4.508;2024-01-07T00:04:18;102042.06;;;1.26;100.00
49030;BME280;43337;52.070;4.508;2024-01-07T00:06:46;102070.81;;;1.39;100.00
49030;BME280;43337;52.070;4.508;2024-01-07T00:09:14;102069.09;;;1.40;100.00
49030;BME280;43337;52.070;4.508;2024-01-07T00:11:40;102013.09;;;0.98;100.00
49030;BME280;43337;52.070;4.508;2024-01-07T00:14:05;102069.91;;;1.36;100.00
49030;BME280;43337;52.070;4.508;2024-01-07T00:16:31;102073.34;;;1.36;100.00
49030;BME280;43337;52.070;4.508;2024-01-07T00:18:57;102089.78;;;1.37;100.00
49030;BME280;43337;52.070;4.508;2024-01-07T00:21:25;102078.47;;;1.32;100.00
49030;BME280;43337;52.070;4.508;2024-01-07T00:23:52;102093.19;;;1.34;100.00
49030;BME280;43337;52.070;4.508;2024-01-07T00:26:17;102062.63;;;1.15;100.00
49030;BME280;43337;52.070;4.508;2024-01-07T00:28:42;102078.25;;;1.18;100.00
49030;BME280;43337;52.070;4.508;2024-01-07T00:31:08;102045.97;;;0.99;100.00
49030;BME280;43337;52.070;4.508;2024-01-07T00:33:35;102050.22;;;0.95;100.00
49030;BME280;43337;52.070;4.508;2024-01-07T00:36:03;102050.19;;;0.94;100.00
49030;BME280;43337;52.070;4.508;2024-01-07T00:38:34;102031.94;;;0.88;100.00
49030;BME280;43337;52.070;4.508;2024-01-07T00:40:59;102024.88;;;0.78;100.00
49030;BME280;43337;52.070;4.508;2024-01-07T00:43:25;102032.66;;;0.79;100.00
49030;BME280;43337;52.070;4.508;2024-01-07T00:45:50;102105.09;;;1.20;100.00
49030;BME280;43337;52.070;4.508;2024-01-07T00:48:15;102112.00;;;1.19;100.00
49030;BME280;43337;52.070;4.508;2024-01-07T00:50:42;102084.91;;;1.04;100.00
49030;BME280;43337;52.070;4.508;2024-01-07T00:53:08;102094.59;;;1.12;100.00
49030;BME280;43337;52.070;4.508;2024-01-07T00:55:34;102103.31;;;1.17;100.00
49030;BME280;43337;52.070;4.508;2024-01-07T00:58:01;102097.28;;;1.18;100.00
49030;BME280;43337;52.070;4.508;2024-01-07T01:00:26;102085.84;;;1.07;100.00
49030;BME280;43337;52.070;4.508;2024-01-07T01:02:53;102096.31;;;1.12;100.00
49030;BME280;43337;52.070;4.508;2024-01-07T01:05:18;102099.84;;;1.15;100.00
49030;BME280;43337;52.070;4.508;2024-01-07T01:07:44;102102.47;;;1.18;100.00
49030;BME280;43337;52.070;4.508;2024-01-07T01:10:09;102106.78;;;1.18;100.00
49030;BME280;43337;52.070;4.508;2024-01-07T01:12:35;102100.72;;;1.19;100.00
49030;BME280;43337;52.070;4.508;2024-01-07T01:15:00;102084.97;;;1.07;100.00
49030;BME280;43337;52.070;4.508;2024-01-07T01:17:26;102066.63;;;0.94;100.00
49030;BME280;43337;52.070;4.508;2024-01-07T01:19:51;102125.91;;;1.23;100.00
49030;BME280;43337;52.070;4.508;2024-01-07T01:22:18;102115.50;;;1.21;100.00
49030;BME280;43337;52.070;4.508;2024-01-07T01:24:43;102087.50;;;1.02;100.00
49030;BME280;43337;52.070;4.508;2024-01-07T01:27:11;102109.31;;;1.13;100.00
49030;BME280;43337;52.070;4.508;2024-01-07T01:29:38;102119.81;;;1.21;100.00
49030;BME280;43337;52.070;4.508;2024-01-07T01:32:03;102114.50;;;1.13;100.00
49030;BME280;43337;52.070;4.508;2024-01-07T01:34:29;102123.28;;;1.21;100.00
49030;BME280;43337;52.070;4.508;2024-01-07T01:36:54;102127.56;;;1.19;100.00
49030;BME280;43337;52.070;4.508;2024-01-07T01:39:19;102082.16;;;0.93;100.00
49030;BME280;43337;52.070;4.508;2024-01-07T01:41:45;102075.13;;;0.86;100.00
49030;BME280;43337;52.070;4.508;2024-01-07T01:44:10;102123.09;;;1.11;100.00
49030;BME280;43337;52.070;4.508;2024-01-07T01:46:37;102123.94;;;1.11;100.00
49030;BME280;43337;52.070;4.508;2024-01-07T01:49:02;102144.88;;;1.20;100.00
49030;BME280;43337;52.070;4.508;2024-01-07T01:51:28;102139.63;;;1.17;100.00
49030;BME280;43337;52.070;4.508;2024-01-07T01:53:54;102115.94;;;0.97;100.00
49030;BME280;43337;52.070;4.508;2024-01-07T01:56:20;102147.41;;;1.17;100.00
49030;BME280;43337;52.070;4.508;2024-01-07T01:58:48;102147.44;;;1.19;100.00
49030;BME280;43337;52.070;4.508;2024-01-07T02:01:14;102106.31;;;0.90;100.00
49030;BME280;43337;52.070;4.508;2024-01-07T02:03:41;102157.84;;;1.20;100.00
49030;BME280;43337;52.070;4.508;2024-01-07T02:06:12;102149.13;;;1.15;100.00
49030;BME280;43337;52.070;4.508;2024-01-07T02:08:38;102157.81;;;1.19;100.00
49030;BME280;43337;52.070;4.508;2024-01-07T02:11:20;102150.03;;;1.19;100.00
49030;BME280;43337;52.070;4.508;2024-01-07T02:13:47;102122.13;;;1.06;100.00
49030;BME280;43337;52.070;4.508;2024-01-07T02:16:13;102115.16;;;1.03;100.00
49030;BME280;43337;52.070;4.508;2024-01-07T02:18:43;102137.84;;;1.15;100.00
49030;BME280;43337;52.070;4.508;2024-01-07T02:21:10;102146.56;;;1.18;100.00
49030;BME280;43337;52.070;4.508;2024-01-07T02:23:36;102144.81;;;1.16;100.00
49030;BME280;43337;52.070;4.508;2024-01-07T02:26:02;102164.81;;;1.23;100.00
49030;BME280;43337;52.070;4.508;2024-01-07T02:28:30;102163.78;;;1.15;100.00
49030;BME280;43337;52.070;4.508;2024-01-07T02:30:55;102159.44;;;1.14;100.00
49030;BME280;43337;52.070;4.508;2024-01-07T02:33:21;102135.91;;;1.03;100.00
49030;BME280;43337;52.070;4.508;2024-01-07T02:35:46;102181.22;;;1.22;100.00
49030;BME280;43337;52.070;4.508;2024-01-07T02:38:15;102115.81;;;0.90;100.00
49030;BME280;43337;52.070;4.508;2024-01-07T02:40:41;102107.81;;;0.78;100.00
49030;BME280;43337;52.070;4.508;2024-01-07T02:43:07;102163.66;;;1.07;100.00
49030;BME280;43337;52.070;4.508;2024-01-07T02:45:33;102159.25;;;1.02;100.00
49030;BME280;43337;52.070;4.508;2024-01-07T02:47:58;102160.09;;;1.02;100.00
49030;BME280;43337;52.070;4.508;2024-01-07T02:50:25;102174.09;;;1.10;100.00
49030;BME280;43337;52.070;4.508;2024-01-07T02:52:51;102145.22;;;0.92;100.00
49030;BME280;43337;52.070;4.508;2024-01-07T02:55:17;102184.53;;;1.13;100.00
49030;BME280;43337;52.070;4.508;2024-01-07T02:57:42;102174.94;;;1.11;100.00
49030;BME280;43337;52.070;4.508;2024-01-07T03:00:08;102146.06;;;0.89;100.00
49030;BME280;43337;52.070;4.508;2024-01-07T03:02:33;102154.78;;;0.93;100.00
49030;BME280;43337;52.070;4.508;2024-01-07T03:04:59;102167.81;;;0.99;100.00
49030;BME280;43337;52.070;4.508;2024-01-07T03:07:24;102195.69;;;1.11;100.00
49030;BME280;43337;52.070;4.508;2024-01-07T03:09:50;102206.06;;;1.11;100.00
49030;BME280;43337;52.070;4.508;2024-01-07T03:12:16;102215.56;;;1.09;100.00
49030;BME280;43337;52.070;4.508;2024-01-07T03:14:41;102139.56;;;0.66;100.00
49030;BME280;43337;52.070;4.508;2024-01-07T03:17:10;102185.91;;;0.94;100.00
49030;BME280;43337;52.070;4.508;2024-01-07T03:19:42;102212.91;;;1.07;100.00
49030;BME280;43337;52.070;4.508;2024-01-07T03:22:07;102214.66;;;1.07;100.00
49030;BME280;43337;52.070;4.508;2024-01-07T03:24:33;102202.31;;;0.93;100.00
49030;BME280;43337;52.070;4.508;2024-01-07T03:26:58;102168.22;;;0.73;100.00
49030;BME280;43337;52.070;4.508;2024-01-07T03:29:24;102216.16;;;0.95;100.00
49030;BME280;43337;52.070;4.508;2024-01-07T03:31:50;102232.72;;;1.02;100.00
49030;BME280;43337;52.070;4.508;2024-01-07T03:34:16;102201.09;;;0.76;100.00
49030;BME280;43337;52.070;4.508;2024-01-07T03:36:42;102219.44;;;0.85;100.00
49030;BME280;43337;52.070;4.508;2024-01-07T03:39:07;102162.59;;;0.52;100.00
49030;BME280;43337;52.070;4.508;2024-01-07T03:41:33;102157.28;;;0.46;100.00
49030;BME280;43337;52.070;4.508;2024-01-07T03:43:59;102241.19;;;0.93;100.00
49030;BME280;43337;52.070;4.508;2024-01-07T03:46:25;102229.81;;;0.85;100.00
49030;BME280;43337;52.070;4.508;2024-01-07T03:48:51;102217.50;;;0.77;100.00
49030;BME280;43337;52.070;4.508;2024-01-07T03:51:16;102241.94;;;0.88;100.00
49030;BME280;43337;52.070;4.508;2024-01-07T03:53:42;102201.63;;;0.60;100.00
49030;BME280;43337;52.070;4.508;2024-01-07T03:56:07;102247.94;;;0.85;100.00
49030;BME280;43337;52.070;4.508;2024-01-07T03:58:33;102264.47;;;0.90;100.00
49030;BME280;43337;52.070;4.508;2024-01-07T04:01:01;102259.16;;;0.84;100.00
49030;BME280;43337;52.070;4.508;2024-01-07T04:03:27;102265.09;;;0.80;100.00
49030;BME280;43337;52.070;4.508;2024-01-07T04:05:52;102269.50;;;0.84;100.00
49030;BME280;43337;52.070;4.508;2024-01-07T04:08:18;102278.06;;;0.80;100.00
49030;BME280;43337;52.070;4.508;2024-01-07T04:10:44;102253.63;;;0.69;100.00
49030;BME280;43337;52.070;4.508;2024-01-07T04:13:09;102222.97;;;0.48;100.00
49030;BME280;43337;52.070;4.508;2024-01-07T04:15:36;102279.88;;;0.84;100.00
49030;BME280;43337;52.070;4.508;2024-01-07T04:18:03;102260.63;;;0.71;100.00
49030;BME280;43337;52.070;4.508;2024-01-07T04:20:30;102283.25;;;0.80;100.00
49030;BME280;43337;52.070;4.508;2024-01-07T04:22:56;102275.38;;;0.74;100.00
49030;BME280;43337;52.070;4.508;2024-01-07T04:25:25;102255.31;;;0.65;100.00
49030;BME280;43337;52.070;4.508;2024-01-07T04:27:51;102249.06;;;0.57;100.00
49030;BME280;43337;52.070;4.508;2024-01-07T04:30:16;102266.59;;;0.69;100.00
49030;BME280;43337;52.070;4.508;2024-01-07T04:32:43;102214.09;;;0.37;100.00
49030;BME280;43337;52.070;4.508;2024-01-07T04:35:09;102215.81;;;0.35;100.00
49030;BME280;43337;52.070;4.508;2024-01-07T04:37:37;102239.38;;;0.47;100.00
49030;BME280;43337;52.070;4.508;2024-01-07T04:40:03;102226.97;;;0.34;100.00
49030;BME280;43337;52.070;4.508;2024-01-07T04:42:29;102228.69;;;0.33;100.00
49030;BME280;43337;52.070;4.508;2024-01-07T04:44:55;102279.38;;;0.60;100.00
49030;BME280;43337;52.070;4.508;2024-01-07T04:47:29;102241.63;;;0.32;100.00
49030;BME280;43337;52.070;4.508;2024-01-07T04:49:55;102262.69;;;0.47;100.00
49030;BME280;43337;52.070;4.508;2024-01-07T04:52:22;102260.13;;;0.48;100.00
49030;BME280;43337;52.070;4.508;2024-01-07T04:54:50;102261.78;;;0.45;100.00
49030;BME280;43337;52.070;4.508;2024-01-07T04:57:15;102271.34;;;0.47;100.00
49030;BME280;43337;52.070;4.508;2024-01-07T04:59:42;102292.25;;;0.57;100.00
49030;BME280;43337;52.070;4.508;2024-01-07T05:02:07;102285.19;;;0.49;100.00
49030;BME280;43337;52.070;4.508;2024-01-07T05:04:33;102289.59;;;0.54;100.00
49030;BME280;43337;52.070;4.508;2024-01-07T05:06:58;102305.09;;;0.51;100.00
49030;BME280;43337;52.070;4.508;2024-01-07T05:09:23;102255.34;;;0.28;100.00
49030;BME280;43337;52.070;4.508;2024-01-07T05:11:49;102309.44;;;0.52;100.00
49030;BME280;43337;52.070;4.508;2024-01-07T05:14:15;102332.16;;;0.65;100.00
49030;BME280;43337;52.070;4.508;2024-01-07T05:16:40;102340.78;;;0.62;100.00
49030;BME280;43337;52.070;4.508;2024-01-07T05:19:06;102338.13;;;0.61;100.00
49030;BME280;43337;52.070;4.508;2024-01-07T05:21:31;102339.81;;;0.59;100.00
49030;BME280;43337;52.070;4.508;2024-01-07T05:23:57;102345.09;;;0.63;100.00
49030;BME280;43337;52.070;4.508;2024-01-07T05:26:23;102324.88;;;0.47;100.00
49030;BME280;43337;52.070;4.508;2024-01-07T05:28:49;102349.38;;;0.61;100.00
49030;BME280;43337;52.070;4.508;2024-01-07T05:31:16;102350.19;;;0.59;100.00
49030;BME280;43337;52.070;4.508;2024-01-07T05:33:44;102342.25;;;0.53;100.00
49030;BME280;43337;52.070;4.508;2024-01-07T05:36:11;102348.41;;;0.56;100.00
49030;BME280;43337;52.070;4.508;2024-01-07T05:38:36;102353.63;;;0.58;100.00
49030;BME280;43337;52.070;4.508;2024-01-07T05:41:02;102367.50;;;0.61;100.00
49030;BME280;43337;52.070;4.508;2024-01-07T05:43:30;102372.66;;;0.60;100.00
49030;BME280;43337;52.070;4.508;2024-01-07T05:45:55;102342.06;;;0.43;100.00
49030;BME280;43337;52.070;4.508;2024-01-07T05:48:22;102380.38;;;0.57;100.00
49030;BME280;43337;52.070;4.508;2024-01-07T05:50:48;102382.16;;;0.59;100.00
49030;BME280;43337;52.070;4.508;2024-01-07T05:53:14;102380.41;;;0.58;100.00
49030;BME280;43337;52.070;4.508;2024-01-07T05:55:42;102382.97;;;0.57;100.00
49030;BME280;43337;52.070;4.508;2024-01-07T05:58:07;102389.09;;;0.60;100.00
49030;BME280;43337;52.070;4.508;2024-01-07T06:00:33;102388.25;;;0.61;100.00
49030;BME280;43337;52.070;4.508;2024-01-07T06:02:59;102379.47;;;0.55;100.00
49030;BME280;43337;52.070;4.508;2024-01-07T06:05:24;102389.84;;;0.55;100.00
49030;BME280;43337;52.070;4.508;2024-01-07T06:07:51;102387.19;;;0.53;100.00
49030;BME280;43337;52.070;4.508;2024-01-07T06:10:16;102409.78;;;0.59;100.00
49030;BME280;43337;52.070;4.508;2024-01-07T06:12:42;102374.78;;;0.40;100.00
49030;BME280;43337;52.070;4.508;2024-01-07T06:15:08;102417.56;;;0.59;100.00
49030;BME280;43337;52.070;4.508;2024-01-07T06:17:33;102407.03;;;0.51;100.00
49030;BME280;43337;52.070;4.508;2024-01-07T06:19:59;102366.75;;;0.29;100.00
49030;BME280;43337;52.070;4.508;2024-01-07T06:22:26;102418.34;;;0.55;100.00
49030;BME280;43337;52.070;4.508;2024-01-07T06:24:51;102424.50;;;0.60;100.00
49030;BME280;43337;52.070;4.508;2024-01-07T06:27:16;102415.75;;;0.55;100.00
49030;BME280;43337;52.070;4.508;2024-01-07T06:29:42;102394.66;;;0.41;100.00
49030;BME280;43337;52.070;4.508;2024-01-07T06:32:07;102402.44;;;0.41;100.00
49030;BME280;43337;52.070;4.508;2024-01-07T06:34:35;102413.94;;;0.51;100.00
49030;BME280;43337;52.070;4.508;2024-01-07T06:37:00;102443.44;;;0.57;100.00
49030;BME280;43337;52.070;4.508;2024-01-07T06:39:27;102386.59;;;0.29;100.00
49030;BME280;43337;52.070;4.508;2024-01-07T06:41:53;102447.75;;;0.57;100.00
49030;BME280;43337;52.070;4.508;2024-01-07T06:44:18;102412.69;;;0.36;100.00
49030;BME280;43337;52.070;4.508;2024-01-07T06:46:44;102444.09;;;0.48;100.00
49030;BME280;43337;52.070;4.508;2024-01-07T06:49:10;102432.78;;;0.45;100.00
49030;BME280;43337;52.070;4.508;2024-01-07T06:51:35;102431.81;;;0.41;100.00
49030;BME280;43337;52.070;4.508;2024-01-07T06:54:01;102446.75;;;0.50;100.00
49030;BME280;43337;52.070;4.508;2024-01-07T06:56:27;102452.72;;;0.47;100.00
49030;BME280;43337;52.070;4.508;2024-01-07T06:58:53;102434.28;;;0.35;100.00
49030;BME280;43337;52.070;4.508;2024-01-07T07:01:22;102476.25;;;0.57;100.00
49030;BME280;43337;52.070;4.508;2024-01-07T07:03:49;102479.72;;;0.57;100.00
49030;BME280;43337;52.070;4.508;2024-01-07T07:06:16;102466.44;;;0.45;100.00
49030;BME280;43337;52.070;4.508;2024-01-07T07:08:42;102482.28;;;0.56;100.00
49030;BME280;43337;52.070;4.508;2024-01-07T07:11:07;102497.91;;;0.59;100.00
49030;BME280;43337;52.070;4.508;2024-01-07T07:13:34;102490.13;;;0.59;100.00
49030;BME280;43337;52.070;4.508;2024-01-07T07:16:00;102464.72;;;0.45;100.00
49030;BME280;43337;52.070;4.508;2024-01-07T07:18:26;102496.97;;;0.57;100.00
49030;BME280;43337;52.070;4.508;2024-01-07T07:20:53;102476.09;;;0.51;100.00
49030;BME280;43337;52.070;4.508;2024-01-07T07:23:19;102505.63;;;0.57;100.00
49030;BME280;43337;52.070;4.508;2024-01-07T07:25:44;102474.88;;;0.36;100.00
49030;BME280;43337;52.070;4.508;2024-01-07T07:28:11;102504.63;;;0.51;100.00
49030;BME280;43337;52.070;4.508;2024-01-07T07:30:37;102512.53;;;0.57;100.00
49030;BME280;43337;52.070;4.508;2024-01-07T07:33:02;102519.50;;;0.59;100.00
49030;BME280;43337;52.070;4.508;2024-01-07T07:35:28;102510.88;;;0.59;100.00
49030;BME280;43337;52.070;4.508;2024-01-07T07:37:55;102516.84;;;0.56;100.00
49030;BME280;43337;52.070;4.508;2024-01-07T07:40:20;102509.53;;;0.41;100.00
49030;BME280;43337;52.070;4.508;2024-01-07T07:42:45;102535.94;;;0.60;100.00
49030;BME280;43337;52.070;4.508;2024-01-07T07:45:14;102532.28;;;0.53;100.00
49030;BME280;43337;52.070;4.508;2024-01-07T07:47:40;102555.78;;;0.59;100.00
49030;BME280;43337;52.070;4.508;2024-01-07T07:50:10;102518.94;;;0.38;100.00
49030;BME280;43337;52.070;4.508;2024-01-07T07:52:36;102551.28;;;0.52;100.00
49030;BME280;43337;52.070;4.508;2024-01-07T07:55:02;102556.50;;;0.54;100.00
49030;BME280;43337;52.070;4.508;2024-01-07T07:57:27;102535.31;;;0.37;100.00
49030;BME280;43337;52.070;4.508;2024-01-07T07:59:54;102553.63;;;0.43;100.00
49030;BME280;43337;52.070;4.508;2024-01-07T08:02:19;102557.03;;;0.42;100.00
49030;BME280;43337;52.070;4.508;2024-01-07T08:04:46;102564.00;;;0.43;100.00
49030;BME280;43337;52.070;4.508;2024-01-07T08:07:12;102537.69;;;0.28;100.00
49030;BME280;43337;52.070;4.508;2024-01-07T08:09:37;102577.84;;;0.45;100.00
49030;BME280;43337;52.070;4.508;2024-01-07T08:12:04;102582.19;;;0.46;100.00
49030;BME280;43337;52.070;4.508;2024-01-07T08:14:29;102566.44;;;0.38;100.00
49030;BME280;43337;52.070;4.508;2024-01-07T08:16:55;102587.31;;;0.43;100.00
49030;BME280;43337;52.070;4.508;2024-01-07T08:19:24;102584.66;;;0.41;100.00
49030;BME280;43337;52.070;4.508;2024-01-07T08:21:50;102589.84;;;0.41;100.00
49030;BME280;43337;52.070;4.508;2024-01-07T08:24:15;102581.00;;;0.33;100.00
49030;BME280;43337;52.070;4.508;2024-01-07T08:26:41;102575.59;;;0.26;100.00
49030;BME280;43337;52.070;4.508;2024-01-07T08:29:07;102598.44;;;0.39;100.00
49030;BME280;43337;52.070;4.508;2024-01-07T08:31:32;102599.03;;;0.30;100.00
49030;BME280;43337;52.070;4.508;2024-01-07T08:33:58;102597.41;;;0.34;100.00
49030;BME280;43337;52.070;4.508;2024-01-07T08:36:23;102599.03;;;0.30;100.00
49030;BME280;43337;52.070;4.508;2024-01-07T08:38:49;102579.72;;;0.19;100.00
49030;BME280;43337;52.070;4.508;2024-01-07T08:41:18;102587.66;;;0.23;100.00
49030;BME280;43337;52.070;4.508;2024-01-07T08:43:44;102599.78;;;0.26;100.00
49030;BME280;43337;52.070;4.508;2024-01-07T08:46:11;102592.50;;;0.13;100.00
49030;BME280;43337;52.070;4.508;2024-01-07T08:48:36;102557.44;;;-0.06;100.00
49030;BME280;43337;52.070;4.508;2024-01-07T08:51:03;102635.53;;;0.38;100.00
49030;BME280;43337;52.070;4.508;2024-01-07T08:53:31;102598.66;;;0.16;100.00
49030;BME280;43337;52.070;4.508;2024-01-07T08:55:57;102606.59;;;0.22;100.00
49030;BME280;43337;52.070;4.508;2024-01-07T08:58:22;102628.50;;;0.34;100.00
49030;BME280;43337;52.070;4.508;2024-01-07T09:00:48;102560.81;;;-0.09;100.00
49030;BME280;43337;52.070;4.508;2024-01-07T09:03:14;102638.13;;;0.38;100.00
49030;BME280;43337;52.070;4.508;2024-01-07T09:05:40;102638.00;;;0.33;100.00
49030;BME280;43337;52.070;4.508;2024-01-07T09:08:06;102627.53;;;0.30;100.00
49030;BME280;43337;52.070;4.508;2024-01-07T09:10:33;102586.19;;;0.03;100.00
49030;BME280;43337;52.070;4.508;2024-01-07T09:12:59;102631.97;;;0.34;100.00
49030;BME280;43337;52.070;4.508;2024-01-07T09:15:25;102648.56;;;0.41;100.00
49030;BME280;43337;52.070;4.508;2024-01-07T09:17:51;102629.13;;;0.25;100.00
49030;BME280;43337;52.070;4.508;2024-01-07T09:20:19;102612.66;;;0.23;100.00
49030;BME280;43337;52.070;4.508;2024-01-07T09:22:46;102590.47;;;0.03;100.00
49030;BME280;43337;52.070;4.508;2024-01-07T09:25:15;102651.13;;;0.39;100.00
49030;BME280;43337;52.070;4.508;2024-01-07T09:27:44;102638.69;;;0.28;100.00
49030;BME280;43337;52.070;4.508;2024-01-07T09:30:10;102613.13;;;0.10;100.00
49030;BME280;43337;52.070;4.508;2024-01-07T09:32:37;102627.16;;;0.16;100.00
49030;BME280;43337;52.070;4.508;2024-01-07T09:35:03;102652.34;;;0.22;100.00
49030;BME280;43337;52.070;4.508;2024-01-07T09:37:31;102665.25;;;0.20;100.00
49030;BME280;43337;52.070;4.508;2024-01-07T09:39:58;102688.81;;;0.30;100.00
49030;BME280;43337;52.070;4.508;2024-01-07T09:42:23;102700.06;;;0.30;100.00
49030;BME280;43337;52.070;4.508;2024-01-07T09:44:50;102711.25;;;0.29;100.00
49030;BME280;43337;52.070;4.508;2024-01-07T09:47:16;102682.06;;;0.05;100.00
49030;BME280;43337;52.070;4.508;2024-01-07T09:49:46;102715.34;;;0.21;100.00
49030;BME280;43337;52.070;4.508;2024-01-07T09:52:22;102678.38;;;-0.02;100.00
49030;BME280;43337;52.070;4.508;2024-01-07T09:54:58;102683.56;;;-0.02;100.00
49030;BME280;43337;52.070;4.508;2024-01-07T09:57:27;102677.44;;;-0.04;100.00
49030;BME280;43337;52.070;4.508;2024-01-07T09:59:54;102693.19;;;0.02;100.00
49030;BME280;43337;52.070;4.508;2024-01-07T10:02:20;102715.06;;;0.12;100.00
49030;BME280;43337;52.070;4.508;2024-01-07T10:04:46;102692.28;;;0.00;100.00
49030;BME280;43337;52.070;4.508;2024-01-07T10:07:15;102732.53;;;0.19;100.00
49030;BME280;43337;52.070;4.508;2024-01-07T10:09:41;102730.78;;;0.18;100.00
49030;BME280;43337;52.070;4.508;2024-01-07T10:12:11;102663.09;;;-0.23;100.00
49030;BME280;43337;52.070;4.508;2024-01-07T10:14:38;102738.66;;;0.21;100.00
49030;BME280;43337;52.070;4.508;2024-01-07T10:17:14;102736.94;;;0.21;100.00
49030;BME280;43337;52.070;4.508;2024-01-07T10:19:48;102702.53;;;-0.03;100.00
49030;BME280;43337;52.070;4.508;2024-01-07T10:22:14;102705.22;;;0.00;100.00
49030;BME280;43337;52.070;4.508;2024-01-07T10:24:45;102729.78;;;0.13;100.00
49030;BME280;43337;52.070;4.508;2024-01-07T10:27:10;102747.25;;;0.20;100.00
49030;BME280;43337;52.070;4.508;2024-01-07T10:29:38;102720.00;;;0.04;100.00
49030;BME280;43337;52.070;4.508;2024-01-07T10:32:04;102753.44;;;0.25;100.00
49030;BME280;43337;52.070;4.508;2024-01-07T10:34:34;102725.13;;;0.03;100.00
49030;BME280;43337;52.070;4.508;2024-01-07T10:37:04;102714.63;;;-0.02;100.00
49030;BME280;43337;52.070;4.508;2024-01-07T10:39:34;102718.09;;;-0.02;100.00
49030;BME280;43337;52.070;4.508;2024-01-07T10:42:02;102719.72;;;-0.05;100.00
49030;BME280;43337;52.070;4.508;2024-01-07T10:44:33;102693.22;;;-0.23;100.00
49030;BME280;43337;52.070;4.508;2024-01-07T10:46:59;102749.53;;;0.11;100.00
49030;BME280;43337;52.070;4.508;2024-01-07T10:49:29;102729.41;;;0.01;100.00
49030;BME280;43337;52.070;4.508;2024-01-07T10:52:06;102771.63;;;0.27;100.00
49030;BME280;43337;52.070;4.508;2024-01-07T10:54:36;102762.97;;;0.26;100.00
49030;BME280;43337;52.070;4.508;2024-01-07T10:57:27;102768.34;;;0.32;100.00
49030;BME280;43337;52.070;4.508;2024-01-07T11:00:02;102764.09;;;0.34;100.00
49030;BME280;43337;52.070;4.508;2024-01-07T11:05:49;102763.28;;;0.35;100.00
49030;BME280;43337;52.070;4.508;2024-01-07T11:08:24;102720.25;;;0.12;100.00
49030;BME280;43337;52.070;4.508;2024-01-07T11:11:05;102756.41;;;0.37;100.00
49030;BME280;43337;52.070;4.508;2024-01-07T11:13:39;102715.22;;;0.16;100.00
49030;BME280;43337;52.070;4.508;2024-01-07T11:16:07;102743.22;;;0.30;100.00
49030;BME280;43337;52.070;4.508;2024-01-07T11:18:46;102699.34;;;0.06;100.00
49030;BME280;43337;52.070;4.508;2024-01-07T11:21:23;102707.09;;;0.06;100.00
49030;BME280;43337;52.070;4.508;2024-01-07T11:23:52;102751.00;;;0.30;100.00
49030;BME280;43337;52.070;4.508;2024-01-07T11:26:19;102746.78;;;0.33;100.00
49030;BME280;43337;52.070;4.508;2024-01-07T11:29:01;102747.78;;;0.38;100.00
49030;BME280;43337;52.070;4.508;2024-01-07T11:34:04;102745.22;;;0.38;100.00
49030;BME280;43337;52.070;4.508;2024-01-07T11:36:43;102686.28;;;0.03;100.00
49030;BME280;43337;52.070;4.508;2024-01-07T11:39:10;102690.59;;;0.02;100.00
49030;BME280;43337;52.070;4.508;2024-01-07T11:41:40;102693.88;;;-0.04;100.00
49030;BME280;43337;52.070;4.508;2024-01-07T11:44:08;102722.91;;;0.15;100.00
49030;BME280;43337;52.070;4.508;2024-01-07T11:46:37;102699.38;;;0.07;100.00
49030;BME280;43337;52.070;4.508;2024-01-07T11:49:04;102743.31;;;0.33;100.00
49030;BME280;43337;52.070;4.508;2024-01-07T11:51:32;102690.97;;;0.14;100.00
49030;BME280;43337;52.070;4.508;2024-01-07T11:54:03;102732.34;;;0.41;100.00
49030;BME280;43337;52.070;4.508;2024-01-07T11:56:30;102699.19;;;0.30;100.00
49030;BME280;43337;52.070;4.508;2024-01-07T11:58:55;102738.88;;;0.57;100.00
49030;BME280;43337;52.070;4.508;2024-01-07T12:01:25;102692.50;;;0.38;100.00
49030;BME280;43337;52.070;4.508;2024-01-07T12:03:51;102767.38;;;0.87;100.00
49030;BME280;43337;52.070;4.508;2024-01-07T12:06:21;102743.59;;;0.70;100.00
49030;BME280;43337;52.070;4.508;2024-01-07T12:08:46;102695.31;;;0.45;100.00
49030;BME280;43337;52.070;4.508;2024-01-07T12:11:13;102742.00;;;0.76;100.00
49030;BME280;43337;52.070;4.508;2024-01-07T12:13:40;102741.88;;;0.71;100.00
49030;BME280;43337;52.070;4.508;2024-01-07T12:16:08;102722.53;;;0.60;100.00
49030;BME280;43337;52.070;4.508;2024-01-07T12:18:38;102752.34;;;0.74;100.00
49030;BME280;43337;52.070;4.508;2024-01-07T12:21:06;102715.94;;;0.41;100.00
49030;BME280;43337;52.070;4.508;2024-01-07T12:23:36;102709.78;;;0.37;100.00
49030;BME280;43337;52.070;4.508;2024-01-07T12:26:16;102747.53;;;0.58;100.00
49030;BME280;43337;52.070;4.508;2024-01-07T12:28:53;102745.84;;;0.60;100.00
49030;BME280;43337;52.070;4.508;2024-01-07T12:31:21;102708.94;;;0.38;100.00
49030;BME280;43337;52.070;4.508;2024-01-07T12:33:47;102795.13;;;0.90;100.00
49030;BME280;43337;52.070;4.508;2024-01-07T12:36:13;102710.00;;;0.45;100.00
49030;BME280;43337;52.070;4.508;2024-01-07T12:38:42;102768.97;;;0.82;100.00
49030;BME280;43337;52.070;4.508;2024-01-07T12:41:08;102719.03;;;0.58;100.00
49030;BME280;43337;52.070;4.508;2024-01-07T12:43:39;102714.78;;;0.61;100.00
49030;BME280;43337;52.070;4.508;2024-01-07T12:46:10;102788.53;;;1.01;100.00
49030;BME280;43337;52.070;4.508;2024-01-07T12:48:36;102723.59;;;0.66;100.00
49030;BME280;43337;52.070;4.508;2024-01-07T12:51:02;102724.44;;;0.65;100.00
49030;BME280;43337;52.070;4.508;2024-01-07T12:53:33;102713.91;;;0.61;100.00
49030;BME280;43337;52.070;4.508;2024-01-07T12:56:10;102773.38;;;0.85;100.00